sensor_id;sensor_type;location;lat;lon;timestamp;pressure;altitude;pressure_sealevel;temperature
63297;BMP280;49419;51.716;-4.948;2022-08-19T07:27:13;101175.28;;;18.69
63297;BMP280;49419;51.716;-4.948;2022-08-19T07:29:39;101181.44;;;18.79
63297;BMP280;49419;51.716;-4.948;2022-08-19T07:32:05;101195.47;;;18.91
63297;BMP280;49419;51.716;-4.948;2022-08-19T07:34:32;101191.25;;;18.99
63297;BMP280;49419;51.716;-4.948;2022-08-19T07:37:05;101201.66;;;19.02
63297;BMP280;49419;51.716;-4.948;2022-08-19T07:39:38;101204.31;;;19.05
63297;BMP280;49419;51.716;-4.948;2022-08-19T07:42:08;101209.59;;;19.12
63297;BMP280;49419;51.716;-4.948;2022-08-19T07:44:35;101207.06;;;19.17
63297;BMP280;49419;51.716;-4.948;2022-08-19T07:47:02;101202.78;;;19.25
63297;BMP280;49419;51.716;-4.948;2022-08-19T07:49:54;101202.88;;;19.32
63297;BMP280;49419;51.716;-4.948;2022-08-19T08:03:46;101238.56;;;19.46
63297;BMP280;49419;51.716;-4.948;2022-08-19T08:09:31;101249.00;;;19.46
63297;BMP280;49419;51.716;-4.948;2022-08-19T08:14:37;101246.47;;;19.52
63297;BMP280;49419;51.716;-4.948;2022-08-19T08:17:26;101248.16;;;19.52
63297;BMP280;49419;51.716;-4.948;2022-08-19T08:19:51;101251.66;;;19.54
63297;BMP280;49419;51.716;-4.948;2022-08-19T08:22:19;101241.31;;;19.58
63297;BMP280;49419;51.716;-4.948;2022-08-19T08:25:14;101238.81;;;19.70
63297;BMP280;49419;51.716;-4.948;2022-08-19T08:27:42;101251.13;;;19.84
63297;BMP280;49419;51.716;-4.948;2022-08-19T08:30:10;101242.47;;;19.90
63297;BMP280;49419;51.716;-4.948;2022-08-19T08:32:38;101245.13;;;19.97
63297;BMP280;49419;51.716;-4.948;2022-08-19T08:35:09;101252.13;;;19.98
63297;BMP280;49419;51.716;-4.948;2022-08-19T08:37:36;101241.69;;;19.98
63297;BMP280;49419;51.716;-4.948;2022-08-19T08:40:14;101256.50;;;20.03
63297;BMP280;49419;51.716;-4.948;2022-08-19T08:42:51;101250.44;;;20.06
63297;BMP280;49419;51.716;-4.948;2022-08-19T08:45:23;101240.00;;;20.06
63297;BMP280;49419;51.716;-4.948;2022-08-19T08:47:51;101235.66;;;20.03
63297;BMP280;49419;51.716;-4.948;2022-08-19T08:50:41;101232.16;;;20.01
63297;BMP280;49419;51.716;-4.948;2022-08-19T08:53:08;101239.97;;;20.04
63297;BMP280;49419;51.716;-4.948;2022-08-19T08:55:36;101240.88;;;20.05
63297;BMP280;49419;51.716;-4.948;2022-08-19T08:58:05;101244.34;;;20.02
63297;BMP280;49419;51.716;-4.948;2022-08-19T09:03:00;101243.41;;;19.93
63297;BMP280;49419;51.716;-4.948;2022-08-19T09:10:52;101241.75;;;20.05
63297;BMP280;49419;51.716;-4.948;2022-08-19T09:13:29;101242.66;;;20.10
63297;BMP280;49419;51.716;-4.948;2022-08-19T09:16:10;101238.31;;;20.14
63297;BMP280;49419;51.716;-4.948;2022-08-19T09:18:50;101235.72;;;20.15
63297;BMP280;49419;51.716;-4.948;2022-08-19T09:21:21;101237.50;;;20.18
63297;BMP280;49419;51.716;-4.948;2022-08-19T09:23:52;101242.72;;;20.19
63297;BMP280;49419;51.716;-4.948;2022-08-19T09:26:20;101257.47;;;20.17
63297;BMP280;49419;51.716;-4.948;2022-08-19T09:28:51;101257.47;;;20.17
63297;BMP280;49419;51.716;-4.948;2022-08-19T09:31:23;101256.56;;;20.15
63297;BMP280;49419;51.716;-4.948;2022-08-19T09:33:51;101260.09;;;20.20
63297;BMP280;49419;51.716;-4.948;2022-08-19T09:36:19;101264.47;;;20.29
63297;BMP280;49419;51.716;-4.948;2022-08-19T09:38:47;101262.75;;;20.29
63297;BMP280;49419;51.716;-4.948;2022-08-19T09:41:19;101252.38;;;20.36
63297;BMP280;49419;51.716;-4.948;2022-08-19T09:43:49;101250.72;;;20.46
63297;BMP280;49419;51.716;-4.948;2022-08-19T09:46:17;101262.03;;;20.54
63297;BMP280;49419;51.716;-4.948;2022-08-19T09:48:45;101263.78;;;20.56
63297;BMP280;49419;51.716;-4.948;2022-08-19T09:51:15;101267.25;;;20.51
63297;BMP280;49419;51.716;-4.948;2022-08-19T09:53:45;101241.13;;;20.48
63297;BMP280;49419;51.716;-4.948;2022-08-19T09:56:23;101257.75;;;20.59
63297;BMP280;49419;51.716;-4.948;2022-08-19T09:58:49;101253.50;;;20.72
63297;BMP280;49419;51.716;-4.948;2022-08-19T10:01:19;101250.06;;;20.82
63297;BMP280;49419;51.716;-4.948;2022-08-19T10:03:51;101252.69;;;20.90
63297;BMP280;49419;51.716;-4.948;2022-08-19T10:06:18;101241.41;;;20.95
63297;BMP280;49419;51.716;-4.948;2022-08-19T10:08:45;101247.53;;;21.04
63297;BMP280;49419;51.716;-4.948;2022-08-19T10:11:15;101247.53;;;21.06
63297;BMP280;49419;51.716;-4.948;2022-08-19T10:13:43;101248.44;;;21.08
63297;BMP280;49419;51.716;-4.948;2022-08-19T10:16:17;101240.56;;;21.09
63297;BMP280;49419;51.716;-4.948;2022-08-19T10:18:43;101256.28;;;21.20
63297;BMP280;49419;51.716;-4.948;2022-08-19T10:21:18;101235.41;;;21.20
63297;BMP280;49419;51.716;-4.948;2022-08-19T10:23:48;101244.09;;;21.29
63297;BMP280;49419;51.716;-4.948;2022-08-19T10:26:20;101255.50;;;21.41
63297;BMP280;49419;51.716;-4.948;2022-08-19T10:28:48;101242.44;;;21.58
63297;BMP280;49419;51.716;-4.948;2022-08-19T10:31:17;101250.31;;;21.71
63297;BMP280;49419;51.716;-4.948;2022-08-19T10:33:43;101248.56;;;21.68
63297;BMP280;49419;51.716;-4.948;2022-08-19T10:36:18;101252.94;;;21.68
63297;BMP280;49419;51.716;-4.948;2022-08-19T10:38:48;101246.84;;;21.63
63297;BMP280;49419;51.716;-4.948;2022-08-19T10:41:20;101261.59;;;21.45
63297;BMP280;49419;51.716;-4.948;2022-08-19T10:43:51;101264.16;;;21.34
63297;BMP280;49419;51.716;-4.948;2022-08-19T10:46:22;101269.38;;;21.30
63297;BMP280;49419;51.716;-4.948;2022-08-19T10:48:49;101244.97;;;21.27
63297;BMP280;49419;51.716;-4.948;2022-08-19T10:51:15;101260.66;;;21.32
63297;BMP280;49419;51.716;-4.948;2022-08-19T10:54:00;101258.97;;;21.43
63297;BMP280;49419;51.716;-4.948;2022-08-19T10:56:27;101253.78;;;21.46
63297;BMP280;49419;51.716;-4.948;2022-08-19T10:59:11;101252.91;;;21.63
63297;BMP280;49419;51.716;-4.948;2022-08-19T11:01:59;101261.63;;;21.86
63297;BMP280;49419;51.716;-4.948;2022-08-19T11:04:26;101262.50;;;21.95
63297;BMP280;49419;51.716;-4.948;2022-08-19T11:06:52;101261.63;;;22.02
63297;BMP280;49419;51.716;-4.948;2022-08-19T11:20:07;101249.44;;;22.26
63297;BMP280;49419;51.716;-4.948;2022-08-19T11:22:42;101236.38;;;22.32
63297;BMP280;49419;51.716;-4.948;2022-08-19T11:25:09;101249.41;;;22.41
63297;BMP280;49419;51.716;-4.948;2022-08-19T11:27:42;101244.19;;;22.46
63297;BMP280;49419;51.716;-4.948;2022-08-19T11:30:14;101245.91;;;22.53
63297;BMP280;49419;51.716;-4.948;2022-08-19T11:32:41;101251.09;;;22.69
63297;BMP280;49419;51.716;-4.948;2022-08-19T11:35:07;101247.59;;;22.73
63297;BMP280;49419;51.716;-4.948;2022-08-19T11:37:34;101254.56;;;22.75
63297;BMP280;49419;51.716;-4.948;2022-08-19T11:40:05;101255.47;;;22.64
63297;BMP280;49419;51.716;-4.948;2022-08-19T11:42:31;101259.84;;;22.55
63297;BMP280;49419;51.716;-4.948;2022-08-19T11:45:15;101253.75;;;22.44
63297;BMP280;49419;51.716;-4.948;2022-08-19T11:47:41;101256.41;;;22.38
63297;BMP280;49419;51.716;-4.948;2022-08-19T11:50:09;101253.78;;;22.33
63297;BMP280;49419;51.716;-4.948;2022-08-19T11:52:37;101258.16;;;22.36
63297;BMP280;49419;51.716;-4.948;2022-08-19T11:55:10;101252.91;;;22.43
63297;BMP280;49419;51.716;-4.948;2022-08-19T11:57:39;101259.00;;;22.44
63297;BMP280;49419;51.716;-4.948;2022-08-19T12:00:06;101255.53;;;22.45
63297;BMP280;49419;51.716;-4.948;2022-08-19T12:02:33;101257.28;;;22.40
63297;BMP280;49419;51.716;-4.948;2022-08-19T12:04:58;101256.41;;;22.39
63297;BMP280;49419;51.716;-4.948;2022-08-19T12:07:26;101249.41;;;22.41
63297;BMP280;49419;51.716;-4.948;2022-08-19T12:09:52;101258.16;;;22.42
63297;BMP280;49419;51.716;-4.948;2022-08-19T12:12:18;101251.19;;;22.30
63297;BMP280;49419;51.716;-4.948;2022-08-19T12:14:44;101251.19;;;22.30
63297;BMP280;49419;51.716;-4.948;2022-08-19T12:17:09;101259.03;;;22.35
63297;BMP280;49419;51.716;-4.948;2022-08-19T12:19:38;101262.50;;;22.38
63297;BMP280;49419;51.716;-4.948;2022-08-19T12:22:09;101262.50;;;22.44
63297;BMP280;49419;51.716;-4.948;2022-08-19T12:24:35;101267.72;;;22.49
63297;BMP280;49419;51.716;-4.948;2022-08-19T12:27:03;101265.09;;;22.50
63297;BMP280;49419;51.716;-4.948;2022-08-19T12:29:30;101267.72;;;22.49
63297;BMP280;49419;51.716;-4.948;2022-08-19T12:31:59;101261.59;;;22.50
63297;BMP280;49419;51.716;-4.948;2022-08-19T12:34:47;101260.75;;;22.54
63297;BMP280;49419;51.716;-4.948;2022-08-19T12:37:12;101265.09;;;22.56
63297;BMP280;49419;51.716;-4.948;2022-08-19T12:39:41;101275.50;;;22.69
63297;BMP280;49419;51.716;-4.948;2022-08-19T12:42:13;101267.63;;;22.74
63297;BMP280;49419;51.716;-4.948;2022-08-19T12:44:40;101270.28;;;22.68
63297;BMP280;49419;51.716;-4.948;2022-08-19T12:47:07;101282.50;;;22.66
63297;BMP280;49419;51.716;-4.948;2022-08-19T12:49:37;101289.47;;;22.64
63297;BMP280;49419;51.716;-4.948;2022-08-19T12:52:07;101282.47;;;22.67
63297;BMP280;49419;51.716;-4.948;2022-08-19T12:54:36;101295.56;;;22.73
63297;BMP280;49419;51.716;-4.948;2022-08-19T12:57:07;101292.06;;;22.71
63297;BMP280;49419;51.716;-4.948;2022-08-19T12:59:42;101293.81;;;22.74
63297;BMP280;49419;51.716;-4.948;2022-08-19T13:02:12;101285.97;;;22.74
63297;BMP280;49419;51.716;-4.948;2022-08-19T13:04:38;101287.72;;;22.85
63297;BMP280;49419;51.716;-4.948;2022-08-19T13:07:07;101289.44;;;22.91
63297;BMP280;49419;51.716;-4.948;2022-08-19T13:09:35;101280.66;;;23.02
63297;BMP280;49419;51.716;-4.948;2022-08-19T13:12:01;101291.94;;;23.19
63297;BMP280;49419;51.716;-4.948;2022-08-19T13:14:28;101283.16;;;23.28
63297;BMP280;49419;51.716;-4.948;2022-08-19T13:16:58;101290.09;;;23.35
63297;BMP280;49419;51.716;-4.948;2022-08-19T13:19:24;101286.56;;;23.42
63297;BMP280;49419;51.716;-4.948;2022-08-19T13:21:50;101282.19;;;23.44
63297;BMP280;49419;51.716;-4.948;2022-08-19T13:24:20;101275.19;;;23.46
63297;BMP280;49419;51.716;-4.948;2022-08-19T13:26:45;101270.81;;;23.45
63297;BMP280;49419;51.716;-4.948;2022-08-19T13:29:16;101281.34;;;23.42
63297;BMP280;49419;51.716;-4.948;2022-08-19T13:32:01;101293.56;;;23.34
63297;BMP280;49419;51.716;-4.948;2022-08-19T13:34:46;101299.75;;;23.27
63297;BMP280;49419;51.716;-4.948;2022-08-19T13:37:12;101299.75;;;23.20
63297;BMP280;49419;51.716;-4.948;2022-08-19T13:39:38;101298.03;;;23.21
63297;BMP280;49419;51.716;-4.948;2022-08-19T13:42:06;101298.06;;;23.16
63297;BMP280;49419;51.716;-4.948;2022-08-19T13:44:34;101300.72;;;23.09
63297;BMP280;49419;51.716;-4.948;2022-08-19T13:47:02;101299.00;;;23.02
63297;BMP280;49419;51.716;-4.948;2022-08-19T13:49:33;101292.94;;;22.90
63297;BMP280;49419;51.716;-4.948;2022-08-19T13:52:11;101289.44;;;22.77
63297;BMP280;49419;51.716;-4.948;2022-08-19T13:54:53;101292.09;;;22.65
63297;BMP280;49419;51.716;-4.948;2022-08-19T13:57:27;101291.22;;;22.62
63297;BMP280;49419;51.716;-4.948;2022-08-19T14:00:09;101284.22;;;22.70
63297;BMP280;49419;51.716;-4.948;2022-08-19T14:02:37;101290.28;;;22.79
63297;BMP280;49419;51.716;-4.948;2022-08-19T14:05:23;101284.19;;;22.86
63297;BMP280;49419;51.716;-4.948;2022-08-19T14:08:07;101288.53;;;22.93
63297;BMP280;49419;51.716;-4.948;2022-08-19T14:10:37;101273.59;;;23.17
63297;BMP280;49419;51.716;-4.948;2022-08-19T14:13:13;101278.69;;;23.53
63297;BMP280;49419;51.716;-4.948;2022-08-19T14:15:56;101274.00;;;23.93
63297;BMP280;49419;51.716;-4.948;2022-08-19T14:18:26;101266.41;;;24.58
63297;BMP280;49419;51.716;-4.948;2022-08-19T14:20:55;101258.09;;;25.61
63297;BMP280;49419;51.716;-4.948;2022-08-19T14:23:21;101250.66;;;26.83
63297;BMP280;49419;51.716;-4.948;2022-08-19T14:25:49;101248.66;;;28.43
63297;BMP280;49419;51.716;-4.948;2022-08-19T14:28:15;101239.34;;;30.03
63297;BMP280;49419;51.716;-4.948;2022-08-19T14:30:45;101240.44;;;31.18
63297;BMP280;49419;51.716;-4.948;2022-08-19T14:33:18;101236.88;;;32.46
63297;BMP280;49419;51.716;-4.948;2022-08-19T14:35:45;101234.56;;;33.69
63297;BMP280;49419;51.716;-4.948;2022-08-19T14:38:19;101238.88;;;34.25
63297;BMP280;49419;51.716;-4.948;2022-08-19T14:43:51;101242.88;;;33.98
63297;BMP280;49419;51.716;-4.948;2022-08-19T14:46:21;101246.97;;;33.52
63297;BMP280;49419;51.716;-4.948;2022-08-19T14:48:47;101243.69;;;32.71
63297;BMP280;49419;51.716;-4.948;2022-08-19T14:51:13;101244.75;;;31.87
63297;BMP280;49419;51.716;-4.948;2022-08-19T14:53:44;101259.19;;;30.89
63297;BMP280;49419;51.716;-4.948;2022-08-19T14:56:16;101267.34;;;30.09
63297;BMP280;49419;51.716;-4.948;2022-08-19T14:58:43;101265.66;;;29.53
63297;BMP280;49419;51.716;-4.948;2022-08-19T15:01:10;101264.94;;;28.59
63297;BMP280;49419;51.716;-4.948;2022-08-19T15:03:38;101264.69;;;28.02
63297;BMP280;49419;51.716;-4.948;2022-08-19T15:06:06;101269.78;;;27.35
63297;BMP280;49419;51.716;-4.948;2022-08-19T15:08:33;101284.97;;;26.82
63297;BMP280;49419;51.716;-4.948;2022-08-19T15:11:09;101279.22;;;26.10
63297;BMP280;49419;51.716;-4.948;2022-08-19T15:13:35;101282.44;;;25.75
63297;BMP280;49419;51.716;-4.948;2022-08-19T15:16:03;101286.41;;;25.41
63297;BMP280;49419;51.716;-4.948;2022-08-19T15:18:29;101279.75;;;25.14
63297;BMP280;49419;51.716;-4.948;2022-08-19T15:20:55;101281.72;;;24.98
63297;BMP280;49419;51.716;-4.948;2022-08-19T15:23:22;101280.97;;;24.85
63297;BMP280;49419;51.716;-4.948;2022-08-19T15:25:48;101281.00;;;24.83
63297;BMP280;49419;51.716;-4.948;2022-08-19T15:28:17;101290.59;;;24.90
63297;BMP280;49419;51.716;-4.948;2022-08-19T15:30:43;101290.59;;;24.90
63297;BMP280;49419;51.716;-4.948;2022-08-19T15:33:11;101285.34;;;24.87
63297;BMP280;49419;51.716;-4.948;2022-08-19T15:35:41;101287.22;;;24.76
63297;BMP280;49419;51.716;-4.948;2022-08-19T15:38:09;101280.44;;;24.59
63297;BMP280;49419;51.716;-4.948;2022-08-19T15:40:38;101272.00;;;24.24
63297;BMP280;49419;51.716;-4.948;2022-08-19T15:43:04;101280.13;;;23.93
63297;BMP280;49419;51.716;-4.948;2022-08-19T15:45:29;101276.81;;;23.69
63297;BMP280;49419;51.716;-4.948;2022-08-19T15:48:02;101282.16;;;23.46
63297;BMP280;49419;51.716;-4.948;2022-08-19T15:50:29;101283.16;;;23.23
63297;BMP280;49419;51.716;-4.948;2022-08-19T15:53:02;101292.88;;;23.04
63297;BMP280;49419;51.716;-4.948;2022-08-19T15:55:31;101278.09;;;22.90
63297;BMP280;49419;51.716;-4.948;2022-08-19T15:58:05;101278.09;;;22.81
63297;BMP280;49419;51.716;-4.948;2022-08-19T16:00:49;101292.94;;;22.85
63297;BMP280;49419;51.716;-4.948;2022-08-19T16:03:33;101291.22;;;22.71
63297;BMP280;49419;51.716;-4.948;2022-08-19T16:06:17;101291.19;;;22.69
63297;BMP280;49419;51.716;-4.948;2022-08-19T16:08:53;101294.69;;;22.71
63297;BMP280;49419;51.716;-4.948;2022-08-19T16:11:28;101299.91;;;22.92
63297;BMP280;49419;51.716;-4.948;2022-08-19T16:13:58;101297.97;;;23.35
63297;BMP280;49419;51.716;-4.948;2022-08-19T16:16:28;101294.38;;;23.53
63297;BMP280;49419;51.716;-4.948;2022-08-19T16:18:58;101304.88;;;23.44
63297;BMP280;49419;51.716;-4.948;2022-08-19T16:21:26;101297.09;;;23.29
63297;BMP280;49419;51.716;-4.948;2022-08-19T16:23:59;101295.53;;;22.94
63297;BMP280;49419;51.716;-4.948;2022-08-19T16:26:25;101305.13;;;22.70
63297;BMP280;49419;51.716;-4.948;2022-08-19T16:28:57;101299.97;;;22.48
63297;BMP280;49419;51.716;-4.948;2022-08-19T16:31:28;101311.31;;;22.33
63297;BMP280;49419;51.716;-4.948;2022-08-19T16:33:56;101311.31;;;22.30
63297;BMP280;49419;51.716;-4.948;2022-08-19T16:36:24;101302.63;;;22.26
63297;BMP280;49419;51.716;-4.948;2022-08-19T16:38:51;101310.44;;;22.33
63297;BMP280;49419;51.716;-4.948;2022-08-19T16:41:20;101306.13;;;22.32
63297;BMP280;49419;51.716;-4.948;2022-08-19T16:43:48;101285.19;;;22.32
63297;BMP280;49419;51.716;-4.948;2022-08-19T16:46:20;101308.72;;;22.26
63297;BMP280;49419;51.716;-4.948;2022-08-19T16:48:47;101308.72;;;22.26
63297;BMP280;49419;51.716;-4.948;2022-08-19T16:51:13;101293.03;;;22.19
63297;BMP280;49419;51.716;-4.948;2022-08-19T16:53:50;101306.97;;;22.21
63297;BMP280;49419;51.716;-4.948;2022-08-19T16:56:18;101312.19;;;22.22
63297;BMP280;49419;51.716;-4.948;2022-08-19T16:58:49;101306.09;;;22.19
63297;BMP280;49419;51.716;-4.948;2022-08-19T17:01:16;101311.34;;;22.23
63297;BMP280;49419;51.716;-4.948;2022-08-19T17:03:42;101309.56;;;22.10
63297;BMP280;49419;51.716;-4.948;2022-08-19T17:06:15;101305.19;;;21.99
63297;BMP280;49419;51.716;-4.948;2022-08-19T17:08:42;101319.13;;;21.91
63297;BMP280;49419;51.716;-4.948;2022-08-19T17:11:08;101318.25;;;21.80
63297;BMP280;49419;51.716;-4.948;2022-08-19T17:13:37;101332.16;;;21.74
63297;BMP280;49419;51.716;-4.948;2022-08-19T17:16:05;101306.03;;;21.67
63297;BMP280;49419;51.716;-4.948;2022-08-19T17:18:40;101312.13;;;21.66
63297;BMP280;49419;51.716;-4.948;2022-08-19T17:21:06;101314.72;;;21.61
63297;BMP280;49419;51.716;-4.948;2022-08-19T17:23:32;101319.94;;;21.60
63297;BMP280;49419;51.716;-4.948;2022-08-19T17:26:06;101308.63;;;21.57
63297;BMP280;49419;51.716;-4.948;2022-08-19T17:28:32;101333.88;;;21.56
63297;BMP280;49419;51.716;-4.948;2022-08-19T17:30:58;101305.13;;;21.55
63297;BMP280;49419;51.716;-4.948;2022-08-19T17:33:31;101322.59;;;21.75
63297;BMP280;49419;51.716;-4.948;2022-08-19T17:35:57;101296.47;;;22.53
63297;BMP280;49419;51.716;-4.948;2022-08-19T17:38:25;101304.94;;;23.33
63297;BMP280;49419;51.716;-4.948;2022-08-19T17:40:55;101301.34;;;23.54
63297;BMP280;49419;51.716;-4.948;2022-08-19T17:43:33;101297.66;;;23.86
63297;BMP280;49419;51.716;-4.948;2022-08-19T17:46:02;101294.69;;;24.33
63297;BMP280;49419;51.716;-4.948;2022-08-19T17:48:32;101294.47;;;25.28
63297;BMP280;49419;51.716;-4.948;2022-08-19T17:53:55;101284.94;;;26.36
63297;BMP280;49419;51.716;-4.948;2022-08-19T17:56:22;101285.16;;;26.69
63297;BMP280;49419;51.716;-4.948;2022-08-19T17:59:07;101279.63;;;27.64
63297;BMP280;49419;51.716;-4.948;2022-08-19T18:01:53;101278.31;;;28.53
63297;BMP280;49419;51.716;-4.948;2022-08-19T18:04:23;101281.97;;;28.79
63297;BMP280;49419;51.716;-4.948;2022-08-19T18:06:54;101280.59;;;28.97
63297;BMP280;49419;51.716;-4.948;2022-08-19T18:09:29;101285.84;;;29.28
63297;BMP280;49419;51.716;-4.948;2022-08-19T18:15:20;101279.34;;;28.46
63297;BMP280;49419;51.716;-4.948;2022-08-19T18:18:10;101291.63;;;26.98
63297;BMP280;49419;51.716;-4.948;2022-08-19T18:23:30;101310.06;;;24.65
63297;BMP280;49419;51.716;-4.948;2022-08-19T18:25:57;101313.38;;;23.86
63297;BMP280;49419;51.716;-4.948;2022-08-19T18:28:35;101310.25;;;23.23
63297;BMP280;49419;51.716;-4.948;2022-08-19T18:31:17;101315.59;;;22.70
63297;BMP280;49419;51.716;-4.948;2022-08-19T18:33:47;101314.81;;;22.31
63297;BMP280;49419;51.716;-4.948;2022-08-19T18:39:33;101323.44;;;21.71
63297;BMP280;49419;51.716;-4.948;2022-08-19T18:42:42;101328.59;;;21.40
63297;BMP280;49419;51.716;-4.948;2022-08-19T18:45:47;101336.31;;;21.16
63297;BMP280;49419;51.716;-4.948;2022-08-19T18:48:39;101342.31;;;20.99
63297;BMP280;49419;51.716;-4.948;2022-08-19T18:51:24;101336.16;;;20.84
63297;BMP280;49419;51.716;-4.948;2022-08-19T18:53:50;101338.75;;;20.79
63297;BMP280;49419;51.716;-4.948;2022-08-19T18:56:19;101343.88;;;20.70
63297;BMP280;49419;51.716;-4.948;2022-08-19T18:58:51;101346.44;;;20.63
63297;BMP280;49419;51.716;-4.948;2022-08-19T19:04:31;101345.38;;;20.42
63297;BMP280;49419;51.716;-4.948;2022-08-19T19:10:10;101338.34;;;20.29
63297;BMP280;49419;51.716;-4.948;2022-08-19T19:12:41;101348.72;;;20.26
63297;BMP280;49419;51.716;-4.948;2022-08-19T19:15:09;101362.63;;;20.22
63297;BMP280;49419;51.716;-4.948;2022-08-19T19:17:37;101338.22;;;20.16
63297;BMP280;49419;51.716;-4.948;2022-08-19T19:20:04;101357.34;;;20.16
63297;BMP280;49419;51.716;-4.948;2022-08-19T19:22:33;101346.88;;;20.10
63297;BMP280;49419;51.716;-4.948;2022-08-19T19:24:59;101345.13;;;20.08
63297;BMP280;49419;51.716;-4.948;2022-08-19T19:27:24;101345.91;;;20.01
63297;BMP280;49419;51.716;-4.948;2022-08-19T19:29:54;101356.28;;;19.97
63297;BMP280;49419;51.716;-4.948;2022-08-19T19:32:26;101357.09;;;19.93
63297;BMP280;49419;51.716;-4.948;2022-08-19T19:35:00;101356.25;;;19.92
63297;BMP280;49419;51.716;-4.948;2022-08-19T19:37:27;101357.97;;;19.92
63297;BMP280;49419;51.716;-4.948;2022-08-19T19:39:55;101355.34;;;19.89
63297;BMP280;49419;51.716;-4.948;2022-08-19T19:42:22;101357.09;;;19.90
63297;BMP280;49419;51.716;-4.948;2022-08-19T19:44:50;101357.06;;;19.87
63297;BMP280;49419;51.716;-4.948;2022-08-19T19:47:17;101352.69;;;19.81
63297;BMP280;49419;51.716;-4.948;2022-08-19T19:49:45;101357.81;;;19.78
63297;BMP280;49419;51.716;-4.948;2022-08-19T19:52:11;101362.13;;;19.75
63297;BMP280;49419;51.716;-4.948;2022-08-19T19:54:36;101369.94;;;19.75
63297;BMP280;49419;51.716;-4.948;2022-08-19T19:57:05;101359.47;;;19.69
63297;BMP280;49419;51.716;-4.948;2022-08-19T19:59:33;101376.84;;;19.71
63297;BMP280;49419;51.716;-4.948;2022-08-19T20:02:00;101374.22;;;19.70
63297;BMP280;49419;51.716;-4.948;2022-08-19T20:04:26;101375.09;;;19.69
63297;BMP280;49419;51.716;-4.948;2022-08-19T20:06:52;101375.94;;;19.68
63297;BMP280;49419;51.716;-4.948;2022-08-19T20:09:17;101375.09;;;19.69
63297;BMP280;49419;51.716;-4.948;2022-08-19T20:11:52;101383.75;;;19.71
63297;BMP280;49419;51.716;-4.948;2022-08-19T20:14:26;101378.50;;;19.66
63297;BMP280;49419;51.716;-4.948;2022-08-19T20:16:53;101384.59;;;19.67
63297;BMP280;49419;51.716;-4.948;2022-08-19T20:19:24;101387.16;;;19.64
63297;BMP280;49419;51.716;-4.948;2022-08-19T20:22:09;101389.81;;;19.67
63297;BMP280;49419;51.716;-4.948;2022-08-19T20:24:46;101385.44;;;19.66
63297;BMP280;49419;51.716;-4.948;2022-08-19T20:27:19;101381.09;;;19.65
63297;BMP280;49419;51.716;-4.948;2022-08-19T20:29:46;101388.91;;;19.66
63297;BMP280;49419;51.716;-4.948;2022-08-19T20:32:15;101386.31;;;19.65
63297;BMP280;49419;51.716;-4.948;2022-08-19T20:34:41;101388.09;;;19.69
63297;BMP280;49419;51.716;-4.948;2022-08-19T20:37:08;101385.53;;;19.72
63297;BMP280;49419;51.716;-4.948;2022-08-19T20:39:34;101381.16;;;19.71
63297;BMP280;49419;51.716;-4.948;2022-08-19T20:41:59;101394.22;;;19.72
63297;BMP280;49419;51.716;-4.948;2022-08-19T20:44:25;101391.56;;;19.71
63297;BMP280;49419;51.716;-4.948;2022-08-19T20:47:05;101395.06;;;19.70
63297;BMP280;49419;51.716;-4.948;2022-08-19T20:49:31;101384.56;;;19.63
63297;BMP280;49419;51.716;-4.948;2022-08-19T20:52:01;101391.50;;;19.62
63297;BMP280;49419;51.716;-4.948;2022-08-19T20:54:30;101394.91;;;19.58
63297;BMP280;49419;51.716;-4.948;2022-08-19T20:56:55;101393.19;;;19.57
63297;BMP280;49419;51.716;-4.948;2022-08-19T20:59:22;101384.44;;;19.52
63297;BMP280;49419;51.716;-4.948;2022-08-19T21:01:51;101390.44;;;19.48
63297;BMP280;49419;51.716;-4.948;2022-08-19T21:07:59;101393.06;;;19.48
63297;BMP280;49419;51.716;-4.948;2022-08-19T21:10:50;101390.38;;;19.41
63297;BMP280;49419;51.716;-4.948;2022-08-19T21:13:45;101395.56;;;19.42
63297;BMP280;49419;51.716;-4.948;2022-08-19T21:16:31;101393.75;;;19.34
63297;BMP280;49419;51.716;-4.948;2022-08-19T21:19:19;101395.47;;;19.35
63297;BMP280;49419;51.716;-4.948;2022-08-19T21:26:16;101388.44;;;19.27
63297;BMP280;49419;51.716;-4.948;2022-08-19T21:31:13;101380.59;;;19.24
63297;BMP280;49419;51.716;-4.948;2022-08-19T21:34:12;101396.31;;;19.33
63297;BMP280;49419;51.716;-4.948;2022-08-19T21:37:25;101384.13;;;19.30
63297;BMP280;49419;51.716;-4.948;2022-08-19T21:40:17;101393.75;;;19.34
63297;BMP280;49419;51.716;-4.948;2022-08-19T21:42:46;101382.41;;;19.31
63297;BMP280;49419;51.716;-4.948;2022-08-19T21:45:30;101394.59;;;19.32
63297;BMP280;49419;51.716;-4.948;2022-08-19T21:48:45;101391.09;;;19.33
63297;BMP280;49419;51.716;-4.948;2022-08-19T21:51:57;101383.25;;;19.28
63297;BMP280;49419;51.716;-4.948;2022-08-19T21:55:25;101398.09;;;19.33
63297;BMP280;49419;51.716;-4.948;2022-08-19T21:58:13;101388.50;;;19.31
63297;BMP280;49419;51.716;-4.948;2022-08-19T22:16:51;101412.72;;;19.24
63297;BMP280;49419;51.716;-4.948;2022-08-19T22:19:18;101409.22;;;19.25
63297;BMP280;49419;51.716;-4.948;2022-08-19T22:21:44;101397.97;;;19.25
63297;BMP280;49419;51.716;-4.948;2022-08-19T22:24:16;101405.75;;;19.25
63297;BMP280;49419;51.716;-4.948;2022-08-19T22:26:53;101407.47;;;19.23
63297;BMP280;49419;51.716;-4.948;2022-08-19T22:29:28;101404.00;;;19.22
63297;BMP280;49419;51.716;-4.948;2022-08-19T22:35:23;101412.59;;;19.18
63297;BMP280;49419;51.716;-4.948;2022-08-19T22:38:13;101410.00;;;19.17
63297;BMP280;49419;51.716;-4.948;2022-08-19T22:40:49;101415.22;;;19.17
63297;BMP280;49419;51.716;-4.948;2022-08-19T22:43:22;101416.03;;;19.14
63297;BMP280;49419;51.716;-4.948;2022-08-19T22:46:06;101417.81;;;19.17
63297;BMP280;49419;51.716;-4.948;2022-08-19T22:48:36;101421.22;;;19.13
63297;BMP280;49419;51.716;-4.948;2022-08-19T22:51:12;101416.88;;;19.13
63297;BMP280;49419;51.716;-4.948;2022-08-19T22:54:03;101418.56;;;19.10
63297;BMP280;49419;51.716;-4.948;2022-08-19T22:56:39;101416.84;;;19.10
63297;BMP280;49419;51.716;-4.948;2022-08-19T22:59:06;101409.78;;;19.02
63297;BMP280;49419;51.716;-4.948;2022-08-19T23:01:36;101411.59;;;19.07
63297;BMP280;49419;51.716;-4.948;2022-08-19T23:04:11;101412.44;;;19.05